createdAt,value
2019-05-20T00:00:53.567Z,13.18
2019-05-20T00:03:23.446Z,11.50
2019-05-20T00:05:53.495Z,13.50
2019-05-20T00:08:23.528Z,13.85
2019-05-20T00:10:53.350Z,13.62
2019-05-20T00:13:23.459Z,14.75
2019-05-20T00:15:53.337Z,15.30
2019-05-20T00:18:23.190Z,13.28
2019-05-20T00:20:53.063Z,14.05
2019-05-20T00:23:22.968Z,15.10
2019-05-20T00:25:52.800Z,18.25
2019-05-20T00:28:22.620Z,14.53
2019-05-20T00:30:52.455Z,14.75
2019-05-20T00:33:22.270Z,15.40
2019-05-20T00:35:52.155Z,14.90
2019-05-20T00:38:22.046Z,14.93
2019-05-20T00:40:51.986Z,14.78
2019-05-20T00:43:21.947Z,15.78
2019-05-20T00:45:51.821Z,16.07
2019-05-20T00:48:21.684Z,14.00
2019-05-20T00:50:51.510Z,13.73
2019-05-20T00:53:21.626Z,14.07
2019-05-20T00:55:51.528Z,15.90
2019-05-20T00:58:21.468Z,14.40
2019-05-20T01:00:51.511Z,15.78
2019-05-20T01:03:21.896Z,15.50
2019-05-20T01:05:51.768Z,16.37
2019-05-20T01:08:21.760Z,15.95
2019-05-20T01:10:51.585Z,16.57
2019-05-20T01:13:21.553Z,17.75
2019-05-20T01:15:51.418Z,17.17
2019-05-20T01:18:21.548Z,16.85
2019-05-20T01:20:53.268Z,16.10
2019-05-20T01:23:23.060Z,16.80
2019-05-20T01:25:55.308Z,17.10
2019-05-20T01:28:25.414Z,18.10
2019-05-20T01:30:55.256Z,15.50
2019-05-20T01:33:25.436Z,16.17
2019-05-20T01:35:55.323Z,16.60
2019-05-20T01:38:25.436Z,19.35
2019-05-20T01:40:55.358Z,17.80
2019-05-20T01:43:25.273Z,17.67
2019-05-20T01:45:55.156Z,17.95
2019-05-20T01:48:25.003Z,19.62
2019-05-20T01:50:55.118Z,18.92
2019-05-20T01:53:25.030Z,18.30
2019-05-20T01:55:55.189Z,18.70
2019-05-20T01:58:25.083Z,21.30
2019-05-20T02:00:54.935Z,20.12
2019-05-20T02:03:31.743Z,17.92
2019-05-20T02:05:56.471Z,18.12
2019-05-20T02:08:26.562Z,20.35
2019-05-20T02:10:56.986Z,20.53
2019-05-20T02:13:46.247Z,19.00
2019-05-20T02:16:16.694Z,22.58
2019-05-20T02:18:47.034Z,19.05
2019-05-20T02:21:17.013Z,21.05
2019-05-20T02:23:47.081Z,22.47
2019-05-20T02:26:16.971Z,25.23
2019-05-20T02:28:46.987Z,23.30
2019-05-20T02:31:17.186Z,22.20
2019-05-20T02:33:52.200Z,23.27
2019-05-20T02:36:19.106Z,28.98
2019-05-20T02:38:49.058Z,21.42
2019-05-20T02:41:19.039Z,23.03
2019-05-20T02:43:48.941Z,24.12
2019-05-20T02:46:18.801Z,24.52
2019-05-20T02:48:48.744Z,24.43
2019-05-20T02:51:30.946Z,24.55
2019-05-20T02:54:02.279Z,23.60
2019-05-20T02:56:32.156Z,27.25
2019-05-20T02:59:02.132Z,27.07
2019-05-20T03:01:31.984Z,24.92
2019-05-20T03:04:11.369Z,24.87
2019-05-20T03:06:33.430Z,25.48
2019-05-20T03:09:04.989Z,25.80
2019-05-20T03:11:34.955Z,23.87
2019-05-20T03:14:04.986Z,25.50
2019-05-20T03:16:34.824Z,26.42
2019-05-20T03:19:04.941Z,24.55
2019-05-20T03:21:34.865Z,25.20
2019-05-20T03:24:05.180Z,27.93
2019-05-20T03:26:35.335Z,27.45
2019-05-20T03:29:05.270Z,26.33
2019-05-20T03:31:35.265Z,26.57
2019-05-20T03:34:05.456Z,27.22
2019-05-20T03:36:35.380Z,27.93
2019-05-20T03:39:06.512Z,27.62
2019-05-20T03:41:36.468Z,27.48
2019-05-20T03:44:06.373Z,27.42
2019-05-20T03:46:36.349Z,27.98
2019-05-20T03:49:06.231Z,25.92
2019-05-20T03:51:36.437Z,26.60
2019-05-20T03:54:06.361Z,29.70
2019-05-20T03:56:36.260Z,25.50
2019-05-20T03:59:06.383Z,27.67
2019-05-20T04:01:36.398Z,29.40
2019-05-20T04:04:06.200Z,29.05
2019-05-20T04:06:36.113Z,26.25
2019-05-20T04:09:07.095Z,26.97
2019-05-20T04:11:37.249Z,29.12
2019-05-20T04:14:09.854Z,26.75
2019-05-20T04:16:39.334Z,27.40
2019-05-20T04:19:09.506Z,27.00
2019-05-20T04:21:39.955Z,31.03
2019-05-20T04:24:10.107Z,26.87
2019-05-20T04:26:40.040Z,25.27
2019-05-20T04:29:09.956Z,28.75
2019-05-20T04:31:39.806Z,23.25
2019-05-20T04:34:10.015Z,26.07
2019-05-20T04:36:39.919Z,25.72
2019-05-20T04:39:09.888Z,26.90
2019-05-20T04:41:40.011Z,21.65
2019-05-20T04:44:10.010Z,23.75
2019-05-20T04:46:40.030Z,22.50
2019-05-20T04:49:10.665Z,24.80
2019-05-20T04:51:40.860Z,21.70
2019-05-20T04:54:10.941Z,20.80
2019-05-20T04:56:41.004Z,22.77
2019-05-20T04:59:11.342Z,21.37
2019-05-20T05:01:41.248Z,34.15
2019-05-20T05:04:11.179Z,23.70
2019-05-20T05:06:41.120Z,19.85
2019-05-20T05:09:11.131Z,20.25
2019-05-20T05:11:41.253Z,20.43
2019-05-20T05:14:11.297Z,20.63
2019-05-20T05:16:41.459Z,21.75
2019-05-20T05:19:11.432Z,18.98
2019-05-20T05:21:41.297Z,24.72
2019-05-20T05:24:11.230Z,19.83
2019-05-20T05:26:41.271Z,19.92
2019-05-20T05:29:11.408Z,19.30
2019-05-20T05:31:41.380Z,24.20
2019-05-20T05:34:11.314Z,20.82
2019-05-20T05:36:41.588Z,19.75
2019-05-20T05:39:11.587Z,19.42
2019-05-20T05:41:41.430Z,20.60
2019-05-20T05:44:11.559Z,21.82
2019-05-20T05:46:41.431Z,21.40
2019-05-20T05:49:11.352Z,22.40
2019-05-20T05:51:41.572Z,22.10
2019-05-20T05:54:11.833Z,21.93
2019-05-20T05:56:41.952Z,22.42
2019-05-20T05:59:11.817Z,21.42
2019-05-20T06:01:42.044Z,22.35
2019-05-20T06:04:12.361Z,21.12
2019-05-20T06:06:42.255Z,20.05
2019-05-20T06:09:12.067Z,24.18
2019-05-20T06:11:42.441Z,20.12
2019-05-20T06:14:15.225Z,21.97
2019-05-20T06:16:45.501Z,23.27
2019-05-20T06:19:15.595Z,18.75
2019-05-20T06:21:45.695Z,20.35
2019-05-20T06:24:21.176Z,19.77
2019-05-20T06:26:50.972Z,19.50
2019-05-20T06:29:21.123Z,20.08
2019-05-20T06:31:52.310Z,17.40
2019-05-20T06:34:25.903Z,18.00
2019-05-20T06:36:57.966Z,17.07
2019-05-20T06:39:39.609Z,19.12
2019-05-20T06:42:10.702Z,18.57
2019-05-20T06:44:52.239Z,17.80
2019-05-20T06:47:12.300Z,18.55
2019-05-20T06:49:42.451Z,19.32
2019-05-20T06:52:34.945Z,19.85
2019-05-20T06:54:49.529Z,19.55
2019-05-20T06:57:19.604Z,19.10
2019-05-20T06:59:49.502Z,19.23
2019-05-20T07:02:55.559Z,18.67
2019-05-20T07:05:54.919Z,18.17
2019-05-20T07:08:27.615Z,20.70
2019-05-20T07:10:57.567Z,17.23
2019-05-20T07:13:27.945Z,20.33
2019-05-20T07:15:58.000Z,17.50
2019-05-20T07:18:28.001Z,19.48
2019-05-20T07:20:57.939Z,20.17
2019-05-20T07:23:30.354Z,19.45
2019-05-20T07:26:00.557Z,19.80
2019-05-20T07:28:30.460Z,19.87
2019-05-20T07:31:00.444Z,18.17
2019-05-20T07:33:30.381Z,18.50
2019-05-20T07:36:00.345Z,18.80
2019-05-20T07:38:30.532Z,18.20
2019-05-20T07:41:00.550Z,17.77
2019-05-20T07:43:30.661Z,18.05
2019-05-20T07:46:01.799Z,17.85
2019-05-20T07:48:34.927Z,17.25
2019-05-20T07:51:05.766Z,17.55
2019-05-20T07:53:35.972Z,17.30
2019-05-20T07:56:11.024Z,17.77
2019-05-20T07:58:44.078Z,16.12
2019-05-20T08:01:14.095Z,17.45
2019-05-20T08:03:44.084Z,15.38
2019-05-20T08:06:14.279Z,16.77
2019-05-20T08:08:44.284Z,16.48
2019-05-20T08:11:14.403Z,15.98
2019-05-20T08:13:44.648Z,15.20
2019-05-20T08:16:14.536Z,15.58
2019-05-20T08:18:44.489Z,14.43
2019-05-20T08:21:14.453Z,14.93
2019-05-20T08:23:44.346Z,15.47
2019-05-20T08:26:14.246Z,15.50
2019-05-20T08:28:44.139Z,16.17
2019-05-20T08:31:15.673Z,15.35
2019-05-20T08:33:45.575Z,16.00
2019-05-20T08:36:15.431Z,14.50
2019-05-20T08:38:45.503Z,15.13
2019-05-20T08:41:15.423Z,14.75
2019-05-20T08:43:45.269Z,15.08
2019-05-20T08:46:15.490Z,14.63
2019-05-20T08:48:45.332Z,15.20
2019-05-20T08:51:15.193Z,14.67
2019-05-20T08:53:45.113Z,16.57
2019-05-20T08:56:15.250Z,17.30
2019-05-20T08:58:45.649Z,17.10
2019-05-20T09:01:15.648Z,15.07
2019-05-20T09:03:45.513Z,14.50
2019-05-20T09:06:20.238Z,13.72
2019-05-20T09:08:46.976Z,15.85
2019-05-20T09:11:17.205Z,14.63
2019-05-20T09:13:47.154Z,14.80
2019-05-20T09:16:17.142Z,17.35
2019-05-20T09:18:47.015Z,14.33
2019-05-20T09:21:17.102Z,17.92
2019-05-20T09:23:46.996Z,17.40
2019-05-20T09:26:17.454Z,15.58
2019-05-20T09:28:47.655Z,15.78
2019-05-20T09:31:17.732Z,14.75
2019-05-20T09:33:50.410Z,14.98
2019-05-20T09:36:20.387Z,16.32
2019-05-20T09:38:50.479Z,14.30
2019-05-20T09:41:20.479Z,15.90
2019-05-20T09:43:50.638Z,13.80
2019-05-20T09:46:21.209Z,15.28
2019-05-20T09:48:51.192Z,15.68
2019-05-20T09:51:23.067Z,13.93
2019-05-20T09:53:52.996Z,17.50
2019-05-20T09:56:22.897Z,15.55
2019-05-20T09:58:55.674Z,17.40
2019-05-20T10:01:25.695Z,16.90
2019-05-20T10:03:55.781Z,19.82
2019-05-20T10:06:28.080Z,16.40
2019-05-20T10:08:58.019Z,14.60
2019-05-20T10:11:28.285Z,16.17
2019-05-20T10:13:58.166Z,14.23
2019-05-20T10:16:29.983Z,15.28
2019-05-20T10:18:59.896Z,15.48
2019-05-20T10:21:29.826Z,16.17
2019-05-20T10:24:02.414Z,15.68
2019-05-20T10:26:32.580Z,15.20
2019-05-20T10:29:05.072Z,15.13
2019-05-20T10:31:34.597Z,14.80
2019-05-20T10:34:05.932Z,15.35
2019-05-20T10:36:35.851Z,15.20
2019-05-20T10:39:07.809Z,17.37
2019-05-20T10:41:38.541Z,15.65
2019-05-20T10:44:08.464Z,16.42
2019-05-20T10:46:38.518Z,17.20
2019-05-20T10:49:10.308Z,18.60
2019-05-20T10:51:44.545Z,17.32
2019-05-20T10:54:17.153Z,18.62
2019-05-20T10:56:59.650Z,19.00
2019-05-20T10:59:28.876Z,20.20
2019-05-20T11:01:58.945Z,19.57
2019-05-20T11:04:29.025Z,18.50
2019-05-20T11:06:59.054Z,16.53
2019-05-20T11:09:30.760Z,15.25
2019-05-20T11:12:00.682Z,16.93
2019-05-20T11:14:31.007Z,15.80
2019-05-20T11:17:01.018Z,15.32
2019-05-20T11:19:30.980Z,19.35
2019-05-20T11:22:00.951Z,16.35
2019-05-20T11:24:30.944Z,16.40
2019-05-20T11:27:00.983Z,16.67
2019-05-20T11:29:30.880Z,14.60
2019-05-20T11:32:02.292Z,16.67
2019-05-20T11:34:32.628Z,15.90
2019-05-20T11:37:02.790Z,16.82
2019-05-20T11:39:34.111Z,16.60
2019-05-20T11:42:04.652Z,15.08
2019-05-20T11:44:40.690Z,16.45
2019-05-20T11:47:11.325Z,15.58
2019-05-20T11:49:44.894Z,16.60
2019-05-20T11:52:14.970Z,15.03
2019-05-20T11:54:45.126Z,15.85
2019-05-20T11:57:15.068Z,15.05
2019-05-20T11:59:44.954Z,14.85
2019-05-20T12:02:14.874Z,16.17
2019-05-20T12:04:47.282Z,15.08
2019-05-20T12:07:17.266Z,15.60
2019-05-20T12:09:49.918Z,17.05
2019-05-20T12:12:19.034Z,15.32
2019-05-20T12:14:49.200Z,18.23
2019-05-20T12:17:19.061Z,17.32
2019-05-20T12:19:49.342Z,15.63
2019-05-20T12:22:19.277Z,13.83
2019-05-20T12:24:51.659Z,16.20
2019-05-20T12:27:20.642Z,16.82
2019-05-20T12:29:50.483Z,15.05
2019-05-20T12:32:20.435Z,14.80
2019-05-20T12:34:50.582Z,14.53
2019-05-20T12:37:20.420Z,15.60
2019-05-20T12:40:05.958Z,17.07
2019-05-20T12:42:23.242Z,17.27
2019-05-20T12:44:53.402Z,14.38
2019-05-20T12:47:23.333Z,15.35
2019-05-20T12:49:53.356Z,15.20
2019-05-20T12:52:23.297Z,14.70
2019-05-20T12:55:06.948Z,15.28
2019-05-20T12:57:24.773Z,15.75
2019-05-20T12:59:54.804Z,15.80
2019-05-20T13:02:24.670Z,16.50
2019-05-20T13:04:55.125Z,16.00
2019-05-20T13:07:26.399Z,14.85
2019-05-20T13:09:56.423Z,13.32
2019-05-20T13:12:26.393Z,15.72
2019-05-20T13:14:56.573Z,16.12
2019-05-20T13:17:26.623Z,16.10
2019-05-20T13:19:56.497Z,13.62
2019-05-20T13:22:29.907Z,14.90
2019-05-20T13:25:01.478Z,16.93
2019-05-20T13:27:31.575Z,15.20
2019-05-20T13:30:01.585Z,17.80
2019-05-20T13:32:31.544Z,17.65
2019-05-20T13:35:03.905Z,15.20
2019-05-20T13:37:33.954Z,15.38
2019-05-20T13:40:04.207Z,13.80
2019-05-20T13:42:34.554Z,14.05
2019-05-20T13:45:07.212Z,17.02
2019-05-20T13:47:41.545Z,13.28
2019-05-20T13:50:11.615Z,13.80
2019-05-20T13:52:41.717Z,15.00
2019-05-20T13:55:12.428Z,13.43
2019-05-20T13:57:42.432Z,13.83
2019-05-20T14:00:15.233Z,13.40
2019-05-20T14:02:45.570Z,14.18
2019-05-20T14:05:15.688Z,13.48
2019-05-20T14:07:45.889Z,12.47
2019-05-20T14:10:16.355Z,12.10
2019-05-20T14:12:46.638Z,12.23
2019-05-20T14:15:20.101Z,11.60
2019-05-20T14:17:50.066Z,12.15
2019-05-20T14:20:23.130Z,10.10
2019-05-20T14:22:53.185Z,11.45
2019-05-20T14:25:24.909Z,12.60
2019-05-20T14:27:55.217Z,13.90
2019-05-20T14:30:27.028Z,14.73
2019-05-20T14:32:57.176Z,14.33
2019-05-20T14:35:27.926Z,14.23
2019-05-20T14:38:00.400Z,13.05
2019-05-20T14:40:30.323Z,14.30
2019-05-20T14:43:00.643Z,15.45
2019-05-20T14:45:32.228Z,14.40
2019-05-20T14:48:02.464Z,10.50
2019-05-20T14:50:34.266Z,11.57
2019-05-20T14:53:05.924Z,12.98
2019-05-20T14:55:42.561Z,14.23
2019-05-20T14:58:53.022Z,12.73
2019-05-20T15:01:27.927Z,14.20
2019-05-20T15:04:02.485Z,12.82
2019-05-20T15:06:38.014Z,13.93
2019-05-20T15:09:08.133Z,15.68
2019-05-20T15:11:38.979Z,15.80
2019-05-20T15:14:10.776Z,14.03
2019-05-20T15:16:40.817Z,13.10
2019-05-20T15:19:10.767Z,12.33
2019-05-20T15:21:40.639Z,12.30
2019-05-20T15:24:10.890Z,15.32
2019-05-20T15:26:40.982Z,11.90
2019-05-20T15:29:26.914Z,10.72
2019-05-20T15:31:42.920Z,10.55
2019-05-20T15:34:12.897Z,12.40
2019-05-20T15:36:42.880Z,10.70
2019-05-20T15:39:12.781Z,12.85
2019-05-20T15:41:43.274Z,10.70
2019-05-20T15:44:13.309Z,10.80
2019-05-20T15:46:43.223Z,11.10
2019-05-20T15:49:13.229Z,10.58
2019-05-20T15:51:43.208Z,12.47
2019-05-20T15:54:13.419Z,13.68
2019-05-20T15:56:43.419Z,12.28
2019-05-20T15:59:13.398Z,11.00
2019-05-20T16:01:45.113Z,11.18
2019-05-20T16:04:15.762Z,12.00
2019-05-20T16:06:45.721Z,13.15
2019-05-20T16:09:17.306Z,11.48
2019-05-20T16:11:47.618Z,12.40
2019-05-20T16:14:39.026Z,14.63
2019-05-20T16:17:09.608Z,12.87
2019-05-20T16:19:45.668Z,12.20
2019-05-20T16:22:15.738Z,10.45
2019-05-20T16:24:47.422Z,11.48
2019-05-20T16:27:43.900Z,12.40
2019-05-20T16:30:20.715Z,10.25
2019-05-20T16:32:58.461Z,9.10
2019-05-20T16:35:32.240Z,9.65
2019-05-20T16:38:05.092Z,12.43
2019-05-20T16:40:35.659Z,11.83
2019-05-20T16:43:13.063Z,10.28
2019-05-20T16:45:43.792Z,11.50
2019-05-20T16:48:43.080Z,13.33
2019-05-20T16:51:14.011Z,19.20
2019-05-20T16:53:51.427Z,10.43
2019-05-20T16:56:33.998Z,8.40
2019-05-20T16:59:07.167Z,8.10
2019-05-20T17:01:45.964Z,8.38
2019-05-20T17:04:09.154Z,9.68
2019-05-20T17:07:08.702Z,7.75
2019-05-20T17:09:47.398Z,10.58
2019-05-20T17:12:17.381Z,8.43
2019-05-20T17:14:59.752Z,10.77
2019-05-20T17:17:34.003Z,9.03
2019-05-20T17:20:04.326Z,7.95
2019-05-20T17:22:45.849Z,8.43
2019-05-20T17:25:16.336Z,9.63
2019-05-20T17:27:46.366Z,8.28
2019-05-20T17:30:44.466Z,9.75
2019-05-20T17:33:03.212Z,8.93
2019-05-20T17:35:33.597Z,8.60
2019-05-20T17:38:12.639Z,9.75
2019-05-20T17:40:52.893Z,8.97
2019-05-20T17:43:36.446Z,8.58
2019-05-20T17:46:12.252Z,8.50
2019-05-20T17:48:51.651Z,9.35
2019-05-20T17:51:35.417Z,9.63
2019-05-20T17:54:07.105Z,11.15
2019-05-20T17:56:37.098Z,8.88
2019-05-20T17:59:07.042Z,9.80
2019-05-20T18:01:36.896Z,9.40
2019-05-20T18:04:07.433Z,9.63
2019-05-20T18:06:38.528Z,8.83
2019-05-20T18:09:08.800Z,10.10
2019-05-20T18:11:44.269Z,10.93
2019-05-20T18:14:54.891Z,10.38
2019-05-20T18:25:11.993Z,11.43
2019-05-20T18:29:55.534Z,14.75
2019-05-20T18:31:32.444Z,12.73
2019-05-20T18:49:41.355Z,17.23
2019-05-20T18:52:18.281Z,15.70
2019-05-20T19:02:05.486Z,17.45
2019-05-20T19:08:32.299Z,17.50
2019-05-20T19:08:39.829Z,17.10
2019-05-20T19:15:06.933Z,19.60
2019-05-20T19:17:50.003Z,18.77
2019-05-20T19:20:23.227Z,22.62
2019-05-20T19:23:17.234Z,19.42
2019-05-20T19:25:53.071Z,19.57
2019-05-20T19:28:27.768Z,17.32
2019-05-20T19:31:11.798Z,22.80
2019-05-20T19:34:10.180Z,18.67
2019-05-20T19:37:23.616Z,21.77
2019-05-20T19:40:22.422Z,19.37
2019-05-20T19:43:58.857Z,20.03
2019-05-20T19:46:32.131Z,19.85
2019-05-20T19:50:02.785Z,26.05
2019-05-20T20:03:13.899Z,24.12
2019-05-20T20:05:53.616Z,23.20
2019-05-20T20:08:27.672Z,24.45
2019-05-20T20:08:56.384Z,24.18
2019-05-20T20:11:40.545Z,24.43
2019-05-20T20:14:16.123Z,24.12
2019-05-20T20:20:01.303Z,25.95
2019-05-20T20:22:32.326Z,27.10
2019-05-20T20:25:11.426Z,27.48
2019-05-20T20:27:50.118Z,27.17
2019-05-20T20:30:26.811Z,27.10
2019-05-20T20:33:07.691Z,30.20
2019-05-20T20:35:39.513Z,28.50
2019-05-20T20:38:10.403Z,26.63
2019-05-20T20:40:45.627Z,26.65
2019-05-20T20:43:22.380Z,29.57
2019-05-20T20:45:55.248Z,29.70
2019-05-20T20:48:26.964Z,28.25
2019-05-20T20:51:01.503Z,31.55
2019-05-20T20:53:31.689Z,26.62
2019-05-20T20:56:02.041Z,26.82
2019-05-20T20:58:32.075Z,26.52
2019-05-20T21:01:02.034Z,29.37
2019-05-20T21:03:32.692Z,29.25
2019-05-20T21:06:02.561Z,26.73
2019-05-20T21:08:32.520Z,27.65
2019-05-20T21:11:05.004Z,26.65
2019-05-20T21:13:35.161Z,27.32
2019-05-20T21:16:06.676Z,25.68
2019-05-20T21:18:45.837Z,25.95
2019-05-20T21:21:15.791Z,29.17
2019-05-20T21:23:45.712Z,26.45
2019-05-20T21:26:15.912Z,23.38
2019-05-20T21:28:52.675Z,25.57
2019-05-20T21:31:21.060Z,24.23
2019-05-20T21:33:51.292Z,25.12
2019-05-20T21:36:23.100Z,21.68
2019-05-20T21:39:05.624Z,24.10
2019-05-20T21:41:35.488Z,20.53
2019-05-20T21:44:05.528Z,21.73
2019-05-20T21:46:36.937Z,22.40
2019-05-20T21:49:06.852Z,25.25
2019-05-20T21:51:37.173Z,20.52
2019-05-20T21:54:07.137Z,24.05
2019-05-20T21:56:37.269Z,24.18
2019-05-20T21:59:07.216Z,26.35
2019-05-20T22:01:37.215Z,27.40
2019-05-20T22:04:07.191Z,24.37
2019-05-20T22:06:38.663Z,27.97
2019-05-20T22:09:08.619Z,29.55
2019-05-20T22:11:38.553Z,28.42
2019-05-20T22:14:08.675Z,29.70
2019-05-20T22:16:39.247Z,29.05
2019-05-20T22:19:09.221Z,30.68
2019-05-20T22:21:52.443Z,30.82
2019-05-20T22:24:22.719Z,30.68
2019-05-20T22:26:52.627Z,26.90
2019-05-20T22:29:22.581Z,27.30
2019-05-20T22:31:52.904Z,27.90
2019-05-20T22:34:25.874Z,25.00
2019-05-20T22:36:57.508Z,28.02
2019-05-20T22:39:29.550Z,26.80
2019-05-20T22:41:59.520Z,26.55
2019-05-20T22:44:29.424Z,24.75
2019-05-20T22:47:01.760Z,28.38
2019-05-20T22:49:32.184Z,26.02
2019-05-20T22:52:03.382Z,23.53
2019-05-20T22:54:33.901Z,29.67
2019-05-20T22:57:03.955Z,26.20
2019-05-20T22:59:37.109Z,26.73
2019-05-20T23:02:07.410Z,28.25
2019-05-20T23:04:37.416Z,30.92
2019-05-20T23:07:10.259Z,28.45
2019-05-20T23:09:40.232Z,27.00
2019-05-20T23:12:11.590Z,27.42
2019-05-20T23:14:41.601Z,29.60
2019-05-20T23:17:13.600Z,29.87
2019-05-20T23:19:43.572Z,29.55
2019-05-20T23:22:14.439Z,29.80
2019-05-20T23:24:44.356Z,33.13
2019-05-20T23:27:14.397Z,29.87
2019-05-20T23:29:44.574Z,36.43
2019-05-20T23:32:17.354Z,36.13
2019-05-20T23:35:08.565Z,37.53
2019-05-20T23:37:40.372Z,32.53
2019-05-20T23:40:10.967Z,31.35
2019-05-20T23:42:41.256Z,30.50
2019-05-20T23:45:11.892Z,32.20
2019-05-20T23:47:42.105Z,34.33
2019-05-20T23:50:12.823Z,31.10
2019-05-20T23:52:42.871Z,31.27
2019-05-20T23:55:13.372Z,30.00
2019-05-20T23:57:44.079Z,32.60
